Time;durP1;ratioP1;P1;durP2;ratioP2;P2;SDS_P1;SDS_P2;PMS_P1;PMS_P2;Temp;Humidity;BMP_temperature;BMP_pressure;BME280_temperature;BME280_humidity;BME280_pressure;Samples;Min_cycle;Max_cycle;Signal;HPM_P1;HPM_P2
2022/10/25 00:01:28;;;;;;;3.83;2.90;;;;;;;18.00;58.89;93567.78;5025388;28;20403;-88
2022/10/25 00:03:54;;;;;;;3.42;2.47;;;;;;;18.01;58.60;93561.81;5016725;28;20472;-88
2022/10/25 00:06:19;;;;;;;4.13;3.17;;;;;;;17.99;58.70;93549.88;5036880;28;20482;-88
2022/10/25 00:08:45;;;;;;;3.10;2.78;;;;;;;18.00;58.77;93551.38;5037446;28;20621;-88
2022/10/25 00:11:19;;;;;;;4.32;3.08;;;;;;;18.00;58.95;93554.84;5008872;28;20036;-88
2022/10/25 00:13:44;;;;;;;3.00;2.67;;;;;;;17.99;58.83;93544.41;5037140;28;20037;-88
2022/10/25 00:16:14;;;;;;;3.85;2.65;;;;;;;18.01;58.97;93547.38;5020266;28;20040;-88
2022/10/25 00:18:39;;;;;;;3.22;2.83;;;;;;;18.00;59.11;93549.38;5020686;28;20032;-89
2022/10/25 00:21:05;;;;;;;3.92;2.75;;;;;;;18.00;58.88;93549.38;5052829;28;20037;-88
2022/10/25 00:23:30;;;;;;;3.35;2.80;;;;;;;18.00;59.18;93543.16;5056757;28;20405;-88
2022/10/25 00:26:02;;;;;;;3.45;2.47;;;;;;;18.00;58.61;93554.84;5043074;28;20483;-88
2022/10/25 00:28:28;;;;;;;3.20;2.38;;;;;;;17.99;58.65;93555.34;5003173;28;20400;-89
2022/10/25 00:31:07;;;;;;;4.32;2.90;;;;;;;17.99;59.04;93561.56;5051241;28;20060;-88
2022/10/25 00:33:33;;;;;;;3.65;2.60;;;;;;;17.99;58.89;93560.81;5018622;28;20048;-88
2022/10/25 00:36:08;;;;;;;3.30;2.65;;;;;;;17.99;58.86;93558.09;5017458;28;20067;-89
2022/10/25 00:38:33;;;;;;;3.88;2.70;;;;;;;17.98;58.65;93562.81;5065356;28;20098;-89
2022/10/25 00:40:59;;;;;;;4.10;2.60;;;;;;;17.98;58.50;93560.06;5054807;28;20767;-88
2022/10/25 00:43:40;;;;;;;3.20;2.78;;;;;;;18.00;58.57;93556.84;5069522;28;20307;-88
2022/10/25 00:46:18;;;;;;;3.70;2.35;;;;;;;17.98;58.56;93562.81;5073597;28;20054;-88
2022/10/25 00:49:01;;;;;;;3.10;2.40;;;;;;;17.99;58.71;93563.56;5090450;28;20534;-88
2022/10/25 00:51:37;;;;;;;3.45;2.30;;;;;;;17.98;59.06;93562.81;5072920;28;20058;-88
2022/10/25 00:54:03;;;;;;;2.83;2.47;;;;;;;17.99;58.72;93552.63;5073497;28;20119;-88
2022/10/25 00:56:31;;;;;;;3.90;2.17;;;;;;;17.99;59.10;93556.09;5072824;28;20162;-88
2022/10/25 00:58:59;;;;;;;3.30;2.50;;;;;;;17.99;59.17;93547.13;5045662;28;20479;-88
2022/10/25 01:01:24;;;;;;;2.90;2.20;;;;;;;17.97;58.94;93555.84;5056447;28;20052;-88
2022/10/25 01:03:50;;;;;;;2.80;2.10;;;;;;;17.97;58.84;93553.13;5058451;28;20044;-88
2022/10/25 01:06:24;;;;;;;3.20;2.25;;;;;;;17.97;58.41;93553.13;5074895;28;20514;-88
2022/10/25 01:08:49;;;;;;;2.80;2.50;;;;;;;17.98;58.50;93548.38;5074930;28;20048;-88
2022/10/25 01:11:15;;;;;;;3.78;2.20;;;;;;;17.98;58.57;93557.34;5055352;28;20043;-89
2022/10/25 01:13:40;;;;;;;3.08;2.00;;;;;;;17.97;58.65;93558.59;5052868;28;20032;-88
2022/10/25 01:16:10;;;;;;;3.00;2.17;;;;;;;18.00;58.39;93548.63;5051481;28;20049;-88
2022/10/25 01:18:42;;;;;;;1.87;1.70;;;;;;;17.98;58.72;93560.06;5060481;28;20040;-88
2022/10/25 01:21:35;;;;;;;2.97;2.30;;;;;;;17.96;58.81;93550.91;5069006;28;20280;-88
2022/10/25 01:24:22;;;;;;;3.33;2.53;;;;;;;17.97;58.67;93544.91;5054268;28;20116;-88
2022/10/25 01:27:03;;;;;;;2.90;1.90;;;;;;;17.96;58.64;93535.25;5069070;28;20037;-88
2022/10/25 01:30:06;;;;;;;2.92;2.00;;;;;;;17.97;58.73;93536.69;5070174;28;20036;-88
2022/10/25 01:32:48;;;;;;;2.70;1.90;;;;;;;17.96;58.74;93532.50;5079203;28;20109;-88
2022/10/25 01:35:22;;;;;;;2.50;2.08;;;;;;;17.96;58.50;93539.97;5087495;28;20088;-88
2022/10/25 01:38:01;;;;;;;3.15;2.25;;;;;;;17.95;58.35;93544.69;5073196;28;20134;-88
2022/10/25 01:40:51;;;;;;;2.25;2.00;;;;;;;17.95;58.68;93550.16;5056336;28;20063;-89
2022/10/25 01:43:25;;;;;;;2.47;1.60;;;;;;;17.94;58.73;93545.19;5084406;28;20109;-88
2022/10/25 01:46:06;;;;;;;1.85;1.70;;;;;;;17.96;58.60;93545.44;5056781;28;20032;-88
2022/10/25 01:48:34;;;;;;;2.47;2.10;;;;;;;17.95;58.37;93544.69;5052957;28;20131;-88
2022/10/25 01:51:09;;;;;;;1.88;1.67;;;;;;;17.94;58.02;93548.69;5055381;28;20555;-88
2022/10/25 01:53:49;;;;;;;2.35;1.80;;;;;;;17.95;58.42;93554.88;5072636;28;20089;-88
2022/10/25 01:56:24;;;;;;;2.15;1.83;;;;;;;17.95;58.20;93552.16;5072635;28;20398;-88
2022/10/25 01:58:58;;;;;;;1.90;1.70;;;;;;;17.94;58.38;93554.16;5055557;28;20051;-88
2022/10/25 02:01:42;;;;;;;1.73;1.38;;;;;;;17.94;58.38;93551.41;5070414;28;20038;-88
2022/10/25 02:04:28;;;;;;;2.35;1.63;;;;;;;17.94;58.23;93548.69;5056491;28;20402;-88
2022/10/25 02:07:06;;;;;;;2.75;1.55;;;;;;;17.94;58.16;93550.66;5055965;28;20358;-88
2022/10/25 02:09:35;;;;;;;2.53;1.90;;;;;;;17.95;58.27;93552.91;5072048;28;20516;-89
2022/10/25 02:12:00;;;;;;;3.60;1.90;;;;;;;17.94;58.28;93558.88;5055188;28;20048;-89
2022/10/25 02:14:37;;;;;;;2.03;1.55;;;;;;;17.94;58.09;93556.13;5071208;28;20092;-88
2022/10/25 02:17:11;;;;;;;2.30;1.58;;;;;;;17.93;58.00;93549.91;5071064;28;20138;-88
2022/10/25 02:19:40;;;;;;;1.65;1.55;;;;;;;17.95;58.46;93541.22;5053633;28;20425;-88
2022/10/25 02:22:09;;;;;;;2.58;1.75;;;;;;;17.93;58.42;93546.44;5054141;28;20028;-88
2022/10/25 02:24:34;;;;;;;1.95;1.40;;;;;;;17.95;58.58;93555.63;5061287;28;20491;-88
2022/10/25 02:26:59;;;;;;;1.77;1.60;;;;;;;17.94;58.76;93553.41;5071065;28;20135;-89
2022/10/25 02:29:26;;;;;;;1.77;1.33;;;;;;;17.93;58.11;93560.13;5055219;28;20097;-88
2022/10/25 02:31:51;;;;;;;1.85;1.65;;;;;;;17.92;58.56;93559.38;5071326;28;20047;-90
2022/10/25 02:34:17;;;;;;;1.80;1.38;;;;;;;17.93;58.26;93560.13;5054108;28;20040;-89
2022/10/25 02:36:48;;;;;;;2.38;1.30;;;;;;;17.94;58.33;93567.81;5050877;28;20402;-88
2022/10/25 02:39:13;;;;;;;2.67;1.45;;;;;;;17.95;58.37;93574.03;5034884;28;20047;-88
2022/10/25 02:41:39;;;;;;;2.05;1.55;;;;;;;17.93;58.16;93571.81;5033862;28;20402;-88
2022/10/25 02:44:04;;;;;;;1.98;1.38;;;;;;;17.95;58.34;93583.00;5071061;28;20032;-88
2022/10/25 02:46:29;;;;;;;1.67;1.30;;;;;;;17.93;58.10;93580.00;5070774;28;20028;-88
2022/10/25 02:48:55;;;;;;;2.10;1.48;;;;;;;17.94;58.28;93580.75;5051789;28;20045;-88
2022/10/25 02:51:21;;;;;;;2.22;1.52;;;;;;;17.94;58.71;93586.22;5033684;28;20036;-88
2022/10/25 02:53:47;;;;;;;2.67;1.60;;;;;;;17.92;58.57;93581.25;5072587;28;20032;-88
2022/10/25 02:56:18;;;;;;;1.92;1.35;;;;;;;17.93;58.29;93582.00;5050668;28;20028;-89
2022/10/25 02:58:43;;;;;;;2.50;1.65;;;;;;;17.93;58.16;93577.28;5066054;28;20506;-88
2022/10/25 03:01:09;;;;;;;1.67;1.40;;;;;;;17.92;58.19;93578.53;5070965;28;20043;-88
2022/10/25 03:03:34;;;;;;;1.90;1.27;;;;;;;17.93;58.75;93582.00;5050909;28;20120;-88
2022/10/25 03:06:00;;;;;;;1.67;1.27;;;;;;;17.92;58.58;93578.53;5048928;28;20066;-89
2022/10/25 03:08:25;;;;;;;1.70;1.20;;;;;;;17.92;58.29;93570.31;5050024;28;20044;-88
2022/10/25 03:10:51;;;;;;;2.83;1.42;;;;;;;17.90;58.44;93577.53;5037081;28;20036;-89
2022/10/25 03:13:16;;;;;;;1.25;1.10;;;;;;;17.92;57.95;93580.50;5060807;28;20063;-88
2022/10/25 03:15:42;;;;;;;2.33;1.30;;;;;;;17.91;58.45;93574.28;5041025;28;20124;-88
2022/10/25 03:18:08;;;;;;;2.13;1.45;;;;;;;17.91;58.10;93579.75;5064596;28;20539;-88
2022/10/25 03:20:33;;;;;;;1.60;1.25;;;;;;;17.92;58.21;93575.03;5034364;28;20127;-88
2022/10/25 03:22:59;;;;;;;2.30;1.45;;;;;;;17.90;58.25;93575.53;5054092;28;20036;-88
2022/10/25 03:25:24;;;;;;;1.77;1.27;;;;;;;17.92;58.28;93575.78;5069361;28;20376;-88
2022/10/25 03:27:49;;;;;;;1.40;1.25;;;;;;;17.90;57.83;93572.06;5070536;28;20043;-89
2022/10/25 03:30:15;;;;;;;1.70;1.23;;;;;;;17.91;57.82;93571.56;5070093;28;20077;-88
2022/10/25 03:32:40;;;;;;;1.92;1.38;;;;;;;17.90;58.46;93575.53;5053853;28;20040;-88
2022/10/25 03:35:06;;;;;;;1.70;1.05;;;;;;;17.91;58.29;93582.50;5053187;28;20395;-88
2022/10/25 03:37:32;;;;;;;1.40;1.30;;;;;;;17.91;58.02;93584.50;5070995;28;20050;-88
2022/10/25 03:39:57;;;;;;;1.80;1.20;;;;;;;17.94;58.17;93588.97;5053117;28;20051;-88
2022/10/25 03:42:22;;;;;;;6.20;1.50;;;;;;;17.96;58.65;93602.88;5067049;28;20127;-89
2022/10/25 03:44:48;;;;;;;1.75;1.10;;;;;;;17.93;58.49;93607.34;5053983;28;20419;-89
2022/10/25 03:47:14;;;;;;;1.20;1.10;;;;;;;17.93;57.86;93606.63;5053231;28;20402;-91
2022/10/25 03:49:40;;;;;;;1.77;1.23;;;;;;;17.94;58.36;93605.38;5053509;28;20035;-91
2022/10/25 03:52:06;;;;;;;3.88;1.30;;;;;;;17.93;58.22;93598.41;5054501;28;20032;-90
2022/10/25 03:54:32;;;;;;;1.50;0.98;;;;;;;17.95;57.92;93602.13;5054991;28;20051;-86
2022/10/25 03:56:57;;;;;;;1.90;1.40;;;;;;;17.95;58.20;93602.13;5072243;28;20048;-89
2022/10/25 03:59:22;;;;;;;2.10;1.20;;;;;;;17.95;57.94;93604.88;5058690;28;20403;-89
2022/10/25 04:01:48;;;;;;;4.35;1.70;;;;;;;17.95;58.28;93595.91;5048322;28;20127;-87
2022/10/25 04:04:13;;;;;;;6.53;5.45;;;;;;;17.99;57.92;93590.91;5052017;28;20059;-87
2022/10/25 04:06:39;;;;;;;2.92;2.08;;;;;;;17.90;56.36;93602.16;5052657;28;20394;-87
2022/10/25 04:09:04;;;;;;;2.42;1.45;;;;;;;17.85;54.68;93608.38;5065663;28;20602;-88
2022/10/25 04:11:30;;;;;;;1.88;1.35;;;;;;;17.80;54.42;93615.34;5078024;28;20036;-87
2022/10/25 04:13:55;;;;;;;7.80;7.00;;;;;;;17.74;53.20;93609.91;5074777;28;20032;-90
2022/10/25 04:16:22;;;;;;;16.55;6.00;;;;;;;17.67;52.12;93607.69;5049517;28;20109;-88
2022/10/25 04:18:49;;;;;;;4.75;2.70;;;;;;;17.65;52.24;93607.44;5057139;28;20159;-89
2022/10/25 04:21:14;;;;;;;11.18;2.95;;;;;;;17.63;51.89;93615.38;5051873;28;20035;-88
2022/10/25 04:23:40;;;;;;;12.65;2.50;;;;;;;17.64;52.44;93616.09;5057222;28;20049;-88
2022/10/25 04:26:05;;;;;;;8.80;2.67;;;;;;;17.62;52.19;93616.59;5059127;28;20355;-87
2022/10/25 04:28:30;;;;;;;13.32;3.10;;;;;;;17.64;52.35;93613.38;5051952;28;20319;-90
2022/10/25 04:30:56;;;;;;;18.35;3.15;;;;;;;17.68;52.99;93620.09;5049116;28;20434;-87
2022/10/25 04:33:21;;;;;;;10.02;2.58;;;;;;;17.72;52.61;93626.06;5065449;28;20276;-87
2022/10/25 04:35:56;;;;;;;27.17;3.58;;;;;;;17.74;53.17;93617.38;5063621;28;20051;-86
2022/10/25 04:38:22;;;;;;;10.98;2.40;;;;;;;17.77;52.83;93614.34;5062513;28;20562;-85
2022/10/25 04:40:55;;;;;;;15.85;8.70;;;;;;;17.84;53.94;93615.81;5044616;28;20037;-86
2022/10/25 04:43:20;;;;;;;7.03;3.85;;;;;;;17.86;54.49;93610.59;5069358;28;20044;-88
2022/10/25 04:45:46;;;;;;;15.38;3.42;;;;;;;17.92;55.17;93624.28;5048604;28;20055;-87
2022/10/25 04:48:11;;;;;;;31.55;12.32;;;;;;;17.89;54.20;93620.53;5066808;28;20036;-92
2022/10/25 04:50:36;;;;;;;27.20;10.48;;;;;;;17.92;54.86;93625.00;5087717;28;20037;-87
2022/10/25 04:53:03;;;;;;;38.17;24.30;;;;;;;17.89;54.68;93630.75;5059163;28;20043;-93
2022/10/25 04:55:28;;;;;;;46.95;27.90;;;;;;;17.89;54.78;93622.53;5074860;28;20044;-91
2022/10/25 04:57:55;;;;;;;37.17;23.60;;;;;;;17.88;54.91;93624.53;5048323;28;20065;-90
2022/10/25 05:00:20;;;;;;;41.58;9.95;;;;;;;17.87;54.77;93625.03;5060897;28;20048;-90
2022/10/25 05:02:46;;;;;;;31.73;9.88;;;;;;;17.85;54.85;93631.00;5059002;28;20043;-92
2022/10/25 05:05:11;;;;;;;73.43;18.85;;;;;;;17.90;54.93;93630.25;5069110;28;20126;-93
2022/10/25 05:07:37;;;;;;;29.48;11.57;;;;;;;17.86;54.38;93629.00;5073485;28;20040;-91
2022/10/25 05:10:02;;;;;;;211.00;45.45;;;;;;;17.86;53.72;93621.53;5074825;28;20058;-92
2022/10/25 05:12:28;;;;;;;83.03;17.08;;;;;;;17.80;53.24;93620.81;5035665;28;20060;-92
2022/10/25 05:14:53;;;;;;;52.20;13.02;;;;;;;17.76;52.50;93620.31;5072725;28;20073;-91
2022/10/25 05:17:19;;;;;;;90.03;17.33;;;;;;;17.72;52.07;93630.78;5048267;28;20029;-91
2022/10/25 05:19:44;;;;;;;37.13;9.13;;;;;;;17.67;52.03;93626.06;5059810;28;20036;-91
2022/10/25 05:22:11;;;;;;;59.40;15.23;;;;;;;17.61;52.31;93626.03;5061398;28;20067;-92
2022/10/25 05:24:36;;;;;;;62.00;21.30;;;;;;;17.60;51.73;93627.28;5045101;28;20486;-90
2022/10/25 05:27:03;;;;;;;41.72;9.25;;;;;;;17.55;51.48;93630.78;5071186;28;20128;-92
2022/10/25 05:29:28;;;;;;;36.35;7.95;;;;;;;17.57;51.56;93636.50;5054296;28;20045;-92
2022/10/25 05:31:54;;;;;;;30.65;8.48;;;;;;;17.59;51.86;93638.72;5066766;28;20040;-91
2022/10/25 05:34:19;;;;;;;36.65;8.40;;;;;;;17.59;51.76;93644.94;5076376;28;20087;-92
2022/10/25 05:36:45;;;;;;;34.70;10.02;;;;;;;17.63;51.75;93647.41;5068895;28;20109;-93
2022/10/25 05:39:10;;;;;;;17.45;8.40;;;;;;;17.65;52.30;93659.38;5061099;28;20044;-90
2022/10/25 05:41:37;;;;;;;57.47;24.80;;;;;;;17.67;52.86;93650.69;5052705;28;20055;-90
2022/10/25 05:44:02;;;;;;;72.47;34.35;;;;;;;17.70;53.01;93649.69;5039414;28;20044;-88
2022/10/25 05:46:28;;;;;;;189.77;55.35;;;;;;;17.71;53.33;93648.44;5060305;28;20051;-89
2022/10/25 05:48:53;;;;;;;129.32;55.35;;;;;;;17.71;53.48;93651.16;5081120;28;20047;-90
2022/10/25 05:51:27;;;;;;;108.25;51.40;;;;;;;17.73;53.33;93656.88;5067403;28;20043;-90
2022/10/25 05:53:54;;;;;;;120.25;54.55;;;;;;;17.74;53.59;93650.19;5044268;28;20063;-91
2022/10/25 05:56:20;;;;;;;188.65;88.80;;;;;;;17.74;53.72;93656.38;5056972;28;20050;-90
2022/10/25 05:58:46;;;;;;;204.55;98.82;;;;;;;17.75;53.55;93662.59;5068036;28;20100;-91
2022/10/25 06:01:14;;;;;;;193.48;86.95;;;;;;;17.78;53.56;93667.78;5065406;28;20071;-89
2022/10/25 06:03:40;;;;;;;200.57;91.70;;;;;;;17.78;53.96;93664.31;5060660;28;20040;-85
2022/10/25 06:06:07;;;;;;;189.73;83.53;;;;;;;17.81;53.69;93669.53;5068066;28;20704;-88
2022/10/25 06:08:32;;;;;;;190.57;94.22;;;;;;;17.84;53.70;93665.06;5047973;28;20044;-89
2022/10/25 06:11:04;;;;;;;193.38;100.05;;;;;;;17.89;53.85;93672.50;5071236;28;20113;-89
2022/10/25 06:13:30;;;;;;;117.90;50.72;;;;;;;17.87;52.42;93675.00;5067164;28;20061;-87
2022/10/25 06:15:55;;;;;;;72.03;30.48;;;;;;;17.81;51.94;93675.00;5065727;28;20069;-89
2022/10/25 06:18:21;;;;;;;37.88;18.05;;;;;;;17.83;51.97;93673.75;5046181;28;20110;-87
2022/10/25 06:20:46;;;;;;;33.60;12.57;;;;;;;17.76;51.85;93681.22;5044924;28;20407;-87
2022/10/25 06:23:12;;;;;;;29.58;11.27;;;;;;;17.78;51.43;93678.72;5068071;28;20325;-86
2022/10/25 06:25:37;;;;;;;41.40;20.55;;;;;;;17.76;51.39;93685.94;5042792;28;20048;-91
2022/10/25 06:28:03;;;;;;;28.73;11.65;;;;;;;17.74;51.97;93693.94;5066988;28;20025;-87
2022/10/25 06:30:28;;;;;;;30.45;11.07;;;;;;;17.73;51.63;93697.91;5071539;28;20036;-88
2022/10/25 06:32:54;;;;;;;23.95;9.05;;;;;;;17.70;51.80;93691.44;5062761;28;20040;-88
2022/10/25 06:35:19;;;;;;;18.90;6.25;;;;;;;17.70;52.10;93698.91;5045706;28;20124;-89
2022/10/25 06:37:45;;;;;;;21.40;8.43;;;;;;;17.67;52.02;93702.63;5079556;28;20039;-90
2022/10/25 06:40:10;;;;;;;23.33;6.05;;;;;;;17.69;51.90;93700.13;5047005;28;20052;-92
2022/10/25 06:42:38;;;;;;;26.30;8.63;;;;;;;17.64;52.27;93707.09;5053090;28;20147;-91
2022/10/25 06:45:04;;;;;;;17.10;5.28;;;;;;;17.63;52.55;93705.56;5070616;28;20041;-90
2022/10/25 06:47:29;;;;;;;51.88;11.50;;;;;;;17.62;52.59;93706.81;5056167;28;20542;-93
2022/10/25 06:49:55;;;;;;;69.93;18.42;;;;;;;17.60;52.68;93709.31;5071570;28;20028;-89
2022/10/25 06:52:23;;;;;;;45.30;12.50;;;;;;;17.63;52.35;93707.56;5089710;28;20044;-93
2022/10/25 06:54:48;;;;;;;46.20;13.75;;;;;;;17.61;52.82;93710.78;5036372;28;20048;-91
2022/10/25 06:57:22;;;;;;;28.85;8.00;;;;;;;17.61;52.92;93712.78;5020974;28;20052;-94
2022/10/25 06:59:59;;;;;;;22.10;7.15;;;;;;;17.60;52.74;93719.50;4998285;28;20124;-94
2022/10/25 07:02:26;;;;;;;46.42;13.23;;;;;;;17.59;52.79;93723.47;5013962;28;20037;-92
2022/10/25 07:08:55;;;;;;;32.45;9.80;;;;;;;17.58;52.98;93719.97;4841883;29;20050;-91
2022/10/25 07:11:21;;;;;;;41.70;11.10;;;;;;;17.57;53.05;93718.50;4865961;29;20132;-90
2022/10/25 07:13:49;;;;;;;34.63;10.68;;;;;;;17.61;52.94;93723.72;4857182;29;20057;-91
2022/10/25 07:16:15;;;;;;;28.23;9.77;;;;;;;17.60;52.76;93730.44;4859318;29;20045;-94
2022/10/25 07:18:41;;;;;;;45.63;14.05;;;;;;;17.62;53.03;93725.22;4881918;29;20050;-92
2022/10/25 07:21:11;;;;;;;29.70;10.27;;;;;;;17.61;52.68;93729.19;4844352;29;20042;-88
2022/10/25 07:23:41;;;;;;;51.70;12.93;;;;;;;17.62;53.01;93739.63;4852610;29;20056;-88
2022/10/25 07:26:13;;;;;;;88.38;28.35;;;;;;;17.61;53.26;93743.59;4853773;29;20113;-92
2022/10/25 07:28:38;;;;;;;80.15;21.70;;;;;;;17.63;53.00;93735.66;4861975;29;20056;-91
2022/10/25 07:31:04;;;;;;;169.60;60.97;;;;;;;17.61;53.15;93729.94;4858475;29;20048;-89
2022/10/25 07:33:30;;;;;;;47.10;16.13;;;;;;;17.61;53.38;93737.38;4881674;29;20174;-91
2022/10/25 07:35:55;;;;;;;24.17;10.32;;;;;;;17.64;53.49;93733.66;4903368;29;20066;-89
2022/10/25 07:38:21;;;;;;;31.25;11.27;;;;;;;17.63;52.93;93730.19;4903861;28;20514;-90
2022/10/25 07:40:58;;;;;;;27.00;11.30;;;;;;;17.68;53.21;93734.94;4948083;28;20058;-92
2022/10/25 07:43:24;;;;;;;90.30;29.60;;;;;;;17.67;53.43;93729.97;4972059;28;20046;-90
2022/10/25 07:45:51;;;;;;;105.97;38.35;;;;;;;17.67;53.32;93735.44;5029350;28;20595;-91
2022/10/25 07:48:16;;;;;;;82.05;23.38;;;;;;;17.70;53.08;93743.38;5022700;28;20052;-92
2022/10/25 07:50:42;;;;;;;46.58;21.73;;;;;;;17.70;53.36;93735.19;5013679;28;20037;-91
2022/10/25 07:53:08;;;;;;;40.83;20.85;;;;;;;17.70;53.48;93737.16;5042820;28;20104;-92
2022/10/25 07:55:35;;;;;;;42.67;18.02;;;;;;;17.70;53.36;93737.91;5017317;28;20044;-91
2022/10/25 07:58:05;;;;;;;52.28;23.25;;;;;;;17.72;53.63;93734.69;5019567;28;20113;-92
2022/10/25 08:00:30;;;;;;;88.68;34.28;;;;;;;17.75;53.44;93725.50;5055461;28;20047;-91
2022/10/25 08:02:56;;;;;;;132.32;30.02;;;;;;;17.79;53.65;93731.44;5061394;28;20063;-91
2022/10/25 08:05:31;;;;;;;87.20;26.23;;;;;;;17.72;53.75;93732.69;5082091;28;20051;-90
2022/10/25 08:08:11;;;;;;;;;;;;;;;;;;;;;
2022/10/25 08:10:37;;;;;;;80.22;31.90;;;;;;;17.73;53.29;93722.50;5027389;28;20511;-93
2022/10/25 08:13:03;;;;;;;59.60;20.40;;;;;;;17.74;53.47;93724.75;5052979;28;20028;-92
2022/10/25 08:15:29;;;;;;;90.68;24.45;;;;;;;17.76;53.49;93726.97;5049977;28;20040;-92
2022/10/25 08:18:01;;;;;;;36.95;14.95;;;;;;;17.75;53.26;93728.94;5052244;28;20066;-93
2022/10/25 08:20:29;;;;;;;49.67;14.63;;;;;;;17.77;53.75;93725.72;5049165;28;20052;-92
2022/10/25 08:23:01;;;;;;;185.45;42.30;;;;;;;17.79;53.69;93715.78;5058396;28;20036;-91
2022/10/25 08:25:27;;;;;;;53.00;16.20;;;;;;;17.73;54.14;93715.06;5053259;28;20043;-93
2022/10/25 08:27:52;;;;;;;69.25;20.33;;;;;;;17.77;54.07;93712.03;5058873;28;20033;-95
2022/10/25 08:30:19;;;;;;;36.22;15.98;;;;;;;17.79;53.81;93715.78;5040932;28;20939;-92
2022/10/25 08:32:44;;;;;;;33.25;16.05;;;;;;;17.81;53.90;93712.53;5021464;28;20059;-92
2022/10/25 08:35:14;;;;;;;30.52;12.07;;;;;;;17.79;54.32;93720.50;5028912;28;20045;-93
2022/10/25 08:37:39;;;;;;;54.63;18.05;;;;;;;17.76;54.03;93714.03;5065779;28;20032;-93
2022/10/25 08:40:06;;;;;;;30.48;13.43;;;;;;;17.78;54.05;93714.28;5039711;28;20055;-91
2022/10/25 08:42:50;;;;;;;37.88;13.68;;;;;;;17.78;54.36;93724.47;5036333;28;20163;-91
2022/10/25 08:45:23;;;;;;;34.47;13.13;;;;;;;17.79;54.01;93723.22;5051550;28;20051;-91
2022/10/25 08:47:51;;;;;;;43.20;13.13;;;;;;;17.76;54.23;93719.50;5034874;28;20048;-91
2022/10/25 08:50:27;;;;;;;64.10;14.43;;;;;;;17.80;53.78;93717.25;5011606;28;20048;-93
2022/10/25 08:52:57;;;;;;;36.67;11.18;;;;;;;17.78;54.09;93727.94;5019206;28;20462;-93
2022/10/25 08:55:31;;;;;;;46.03;13.15;;;;;;;17.80;54.17;93730.94;5013688;28;20060;-92
2022/10/25 08:57:58;;;;;;;78.72;26.48;;;;;;;17.83;53.88;93733.91;5040378;28;20048;-92
2022/10/25 09:00:25;;;;;;;71.88;24.50;;;;;;;17.84;54.02;93724.47;5067148;28;20041;-92
2022/10/25 09:02:56;;;;;;;74.03;26.08;;;;;;;17.81;54.12;93728.94;5056006;28;20058;-91
2022/10/25 09:05:44;;;;;;;63.53;25.17;;;;;;;17.84;54.20;93729.94;5049633;28;20437;-93
2022/10/25 09:08:12;;;;;;;32.33;14.98;;;;;;;17.84;54.64;93733.41;5047510;28;20081;-92
2022/10/25 09:10:41;;;;;;;72.57;25.55;;;;;;;17.84;54.48;93727.94;5087752;28;20048;-90
2022/10/25 09:13:16;;;;;;;49.05;23.02;;;;;;;17.83;54.75;93737.41;5089825;28;20028;-90
2022/10/25 09:15:53;;;;;;;65.90;28.38;;;;;;;17.90;54.74;93733.41;5062553;28;20075;-90
2022/10/25 09:18:18;;;;;;;76.00;29.75;;;;;;;17.90;54.48;93727.94;5048244;28;20037;-89
2022/10/25 09:20:49;;;;;;;75.75;34.45;;;;;;;17.88;54.95;93722.97;5047129;28;20037;-89
2022/10/25 09:23:25;;;;;;;117.18;50.83;;;;;;;17.87;54.93;93724.22;5045952;28;20040;-89
2022/10/25 09:26:02;;;;;;;81.38;36.53;;;;;;;17.88;54.92;93731.19;5073233;28;20040;-91
2022/10/25 09:28:50;;;;;;;72.18;32.55;;;;;;;17.91;54.90;93727.44;5077746;28;20043;-92
2022/10/25 09:31:18;;;;;;;64.25;27.67;;;;;;;17.88;54.65;93722.22;5050439;28;20048;-90
2022/10/25 09:33:45;;;;;;;84.70;33.67;;;;;;;17.89;54.79;93724.47;5049492;28;20093;-89
2022/10/25 09:36:10;;;;;;;72.47;33.08;;;;;;;17.89;54.71;93721.00;5073188;28;20398;-90
2022/10/25 09:38:49;;;;;;;65.13;27.75;;;;;;;17.91;54.47;93715.78;5051674;28;20109;-88
2022/10/25 09:41:28;;;;;;;80.28;33.67;;;;;;;17.90;54.62;93715.03;5060966;28;20256;-90
2022/10/25 09:43:58;;;;;;;83.68;33.00;;;;;;;17.89;54.59;93723.72;5061146;28;20044;-90
2022/10/25 09:46:31;;;;;;;60.75;27.65;;;;;;;17.90;54.80;93727.94;5054074;28;20047;-90
2022/10/25 09:49:04;;;;;;;141.05;43.08;;;;;;;17.89;54.87;93732.66;5050313;28;20709;-89
2022/10/25 09:52:04;;;;;;;82.07;32.83;;;;;;;17.91;54.55;93729.44;5068637;28;20040;-90
2022/10/25 09:54:40;;;;;;;60.72;25.70;;;;;;;17.89;54.77;93731.94;5066942;28;20044;-89
2022/10/25 09:57:05;;;;;;;77.47;28.65;;;;;;;17.92;54.52;93726.22;5052824;28;20028;-91
2022/10/25 09:59:31;;;;;;;74.25;29.70;;;;;;;17.92;54.42;93726.22;5054447;28;20441;-87
2022/10/25 10:01:56;;;;;;;98.50;26.67;;;;;;;17.92;54.77;93739.13;5083096;28;20805;-88
2022/10/25 10:04:35;;;;;;;53.03;23.77;;;;;;;17.93;54.56;93743.38;5049529;28;20185;-87
2022/10/25 10:07:06;;;;;;;50.38;20.38;;;;;;;17.92;54.42;93747.34;5060911;28;20044;-90
2022/10/25 10:09:32;;;;;;;43.25;17.65;;;;;;;17.93;54.74;93746.09;5071416;28;20032;-91
2022/10/25 10:11:58;;;;;;;34.92;16.42;;;;;;;17.90;54.53;93741.63;5070673;28;20712;-88
2022/10/25 10:14:26;;;;;;;34.70;15.20;;;;;;;17.89;54.75;93743.63;5055131;28;20029;-89
2022/10/25 10:16:53;;;;;;;37.17;15.73;;;;;;;17.90;54.84;93742.38;5067280;28;20049;-88
2022/10/25 10:19:23;;;;;;;81.80;63.50;;;;;;;17.89;54.74;93743.63;5046099;28;20132;-88
2022/10/25 10:21:54;;;;;;;62.42;36.78;;;;;;;17.92;55.26;93744.59;5048713;28;20037;-88
2022/10/25 10:24:22;;;;;;;29.80;14.90;;;;;;;17.93;54.89;93751.56;5079894;28;20065;-90
2022/10/25 10:26:50;;;;;;;29.60;16.20;;;;;;;17.89;55.32;93746.34;5054077;28;20028;-87
2022/10/25 10:29:19;;;;;;;52.92;17.25;;;;;;;17.93;55.14;93735.91;5054338;28;20036;-87
2022/10/25 10:31:47;;;;;;;27.90;13.40;;;;;;;17.95;55.16;93738.88;5056936;28;20047;-90
2022/10/25 10:34:22;;;;;;;29.92;13.63;;;;;;;17.93;55.65;93733.16;5065138;28;20533;-89
2022/10/25 10:37:01;;;;;;;23.35;11.55;;;;;;;17.92;55.34;93736.41;5069828;28;20264;-88
2022/10/25 10:39:26;;;;;;;23.77;10.88;;;;;;;17.91;55.54;93734.91;5053474;28;20537;-87
2022/10/25 10:42:14;;;;;;;19.23;10.98;;;;;;;17.90;55.28;93742.38;5038093;28;20047;-87
2022/10/25 10:44:39;;;;;;;14.55;9.77;;;;;;;17.91;54.75;93743.13;5052877;28;20362;-89
2022/10/25 10:47:19;;;;;;;21.27;11.60;;;;;;;17.88;55.42;93736.66;5067545;28;20028;-87
2022/10/25 10:49:44;;;;;;;34.30;16.58;;;;;;;17.92;55.28;93734.41;5046966;28;20051;-90
2022/10/25 10:52:30;;;;;;;67.65;18.83;;;;;;;17.90;54.98;93733.41;5044670;28;20040;-92
2022/10/25 10:54:55;;;;;;;127.80;28.65;;;;;;;17.90;54.62;93728.69;5063295;28;20041;-91
2022/10/25 10:57:27;;;;;;;96.47;21.90;;;;;;;17.91;55.00;93729.44;5048418;28;20028;-91
2022/10/25 10:59:54;;;;;;;54.10;14.80;;;;;;;17.91;54.56;93729.44;5073582;28;20048;-92
2022/10/25 11:02:32;;;;;;;54.40;13.10;;;;;;;17.89;55.03;93731.94;5055297;28;20032;-94
2022/10/25 11:04:57;;;;;;;41.58;14.55;;;;;;;17.90;54.41;93731.44;5074089;28;20036;-92
2022/10/25 11:07:29;;;;;;;48.70;14.23;;;;;;;17.90;54.98;93722.47;5039255;28;20564;-94
2022/10/25 11:10:16;;;;;;;31.20;11.38;;;;;;;17.88;54.83;93725.72;5056700;28;20028;-92
2022/10/25 11:12:42;;;;;;;26.85;11.32;;;;;;;17.89;54.67;93721.72;5094233;28;20032;-93
2022/10/25 11:15:11;;;;;;;38.80;16.02;;;;;;;17.90;54.77;93719.75;5086242;28;20039;-92
2022/10/25 11:17:38;;;;;;;46.35;21.08;;;;;;;17.90;54.85;93714.28;5061090;28;20028;-93
2022/10/25 11:20:13;;;;;;;63.65;20.70;;;;;;;17.89;54.98;93710.06;5074696;28;20024;-90
2022/10/25 11:23:02;;;;;;;48.60;14.75;;;;;;;17.87;54.80;93716.03;5075025;28;20036;-91
2022/10/25 11:25:30;;;;;;;36.28;12.70;;;;;;;17.89;55.08;93727.22;5055544;28;20045;-93
2022/10/25 11:28:08;;;;;;;33.17;11.95;;;;;;;17.89;54.96;93729.94;5076107;28;20032;-89
2022/10/25 11:30:54;;;;;;;36.05;11.85;;;;;;;17.89;54.86;93723.72;5081305;28;20562;-90
2022/10/25 11:33:25;;;;;;;44.60;14.70;;;;;;;17.89;54.71;93723.72;5042681;28;20032;-93
2022/10/25 11:36:09;;;;;;;;;;;;;;;17.92;54.46;93723.47;5079042;28;20072;-95
2022/10/25 11:38:41;;;;;;;35.47;13.02;;;;;;;17.90;54.68;93725.22;5092319;28;19920;-89